Airfield :
LOGIN :

Register | Disclaimer

   EN    FR    IT 

 










Legend :    VFR   Marginal VFR   IFR   Intensive IFR   Very Intensive IFR
Visi :
Ceiling :
>= 8 km
>= 3000ft
5 to 8 km
1000 to 3000 ft
1500m to 5 km
500 to 1000 ft
800 to 1500m
200 to 500 ft
< 800m
< 200 ft
Symbols :   Thunderstorms  Fog  Heavy snow  Heavy precipitations  Wind > 20 kt
SIGMETs :     Misc.  Thunderstorms  Icing  Turbulence  Mountain Waves  Volcanic Ashes






- Airport Elevation : 16 ft
- IATA code : LPX


EVLA - Liepaja

CURRENT METAR :
  • 291320Z AUTO 26004KT 210V310 9999 FEW026/// SCT035/// 25/20 Q1016

EXPIRED METARs :
  • 291250Z AUTO 27004KT 230V360 CAVOK 25/20 Q1017
  • 291220Z AUTO 28004KT 240V320 9999 FEW025/// 23/20 Q1017
  • 291150Z AUTO 24004KT 170V270 9999 FEW020/// SCT043/// 24/20 Q1017
  • 291120Z AUTO VRB03KT 9999 FEW021/// BKN025/// OVC044/// 24/20 Q1017
  • 291050Z AUTO 11005KT 070V150 //// R24///// R06///// SCT022/// OVC028/// 24/19 Q1017

TAF TAF EVLA
Valid from the 29 at 12:00 until the 30 at 12:00 UTC


291109Z 2912/3012 20005KT 9999 SCT045
TEMPO 2912/2918 SCT040CB
PROB40
TEMPO 2922/3005 4000 TSRA BKN020CB



MET'MAP, your aeronautical weather chart ! - Copyright ORBIFLY December 2007 - Disclaimer

ORBIFLY MET'MAP TEAM :

Programming & Development : Alexandra Zaïnal
Original concept : Baudouin d'Aumeries
Technical & hardware support : Manuel Goepfert
Assistance : Marc-Olivier Méhu




SOURCES & CREDITS :

   NOAA